sensor_id;sensor_type;location;lat;lon;timestamp;temperature;humidity
16417;DHT22;8317;52.186;5.688;2023-04-03T00:00:21;4.10;99.90
16417;DHT22;8317;52.186;5.688;2023-04-03T00:02:50;4.10;99.90
16417;DHT22;8317;52.186;5.688;2023-04-03T00:05:16;4.10;99.90
16417;DHT22;8317;52.186;5.688;2023-04-03T00:07:43;4.10;99.90
16417;DHT22;8317;52.186;5.688;2023-04-03T00:10:11;4.10;99.90
16417;DHT22;8317;52.186;5.688;2023-04-03T00:12:38;4.00;99.90
16417;DHT22;8317;52.186;5.688;2023-04-03T00:15:05;4.00;99.90
16417;DHT22;8317;52.186;5.688;2023-04-03T00:17:32;4.00;99.90
16417;DHT22;8317;52.186;5.688;2023-04-03T00:20:00;4.00;99.90
16417;DHT22;8317;52.186;5.688;2023-04-03T00:22:27;4.00;99.90
16417;DHT22;8317;52.186;5.688;2023-04-03T00:24:55;4.00;99.90
16417;DHT22;8317;52.186;5.688;2023-04-03T00:27:22;3.90;99.90
16417;DHT22;8317;52.186;5.688;2023-04-03T00:29:49;3.90;99.90
16417;DHT22;8317;52.186;5.688;2023-04-03T00:32:16;3.90;99.90
16417;DHT22;8317;52.186;5.688;2023-04-03T00:34:43;3.80;99.90
16417;DHT22;8317;52.186;5.688;2023-04-03T00:37:11;3.80;99.90
16417;DHT22;8317;52.186;5.688;2023-04-03T00:39:38;3.80;99.90
16417;DHT22;8317;52.186;5.688;2023-04-03T00:42:05;3.80;99.90
16417;DHT22;8317;52.186;5.688;2023-04-03T00:47:37;3.80;99.90
16417;DHT22;8317;52.186;5.688;2023-04-03T00:50:06;3.80;99.90
16417;DHT22;8317;52.186;5.688;2023-04-03T00:52:34;3.70;99.90
16417;DHT22;8317;52.186;5.688;2023-04-03T00:55:05;3.70;99.90
16417;DHT22;8317;52.186;5.688;2023-04-03T00:57:34;3.70;99.90
16417;DHT22;8317;52.186;5.688;2023-04-03T01:00:05;3.70;99.90
16417;DHT22;8317;52.186;5.688;2023-04-03T01:02:34;3.60;99.90
16417;DHT22;8317;52.186;5.688;2023-04-03T01:05:02;3.60;99.90
16417;DHT22;8317;52.186;5.688;2023-04-03T01:07:30;3.60;99.90
16417;DHT22;8317;52.186;5.688;2023-04-03T01:10:02;3.60;99.90
16417;DHT22;8317;52.186;5.688;2023-04-03T01:12:31;3.50;99.90
16417;DHT22;8317;52.186;5.688;2023-04-03T01:15:01;3.50;99.90
16417;DHT22;8317;52.186;5.688;2023-04-03T01:17:30;3.50;99.90
16417;DHT22;8317;52.186;5.688;2023-04-03T01:22:58;3.40;99.90
16417;DHT22;8317;52.186;5.688;2023-04-03T01:25:27;3.40;99.90
16417;DHT22;8317;52.186;5.688;2023-04-03T01:27:54;3.40;99.90
16417;DHT22;8317;52.186;5.688;2023-04-03T01:30:25;3.40;99.90
16417;DHT22;8317;52.186;5.688;2023-04-03T01:32:55;3.30;99.90
16417;DHT22;8317;52.186;5.688;2023-04-03T01:35:22;3.30;99.90
16417;DHT22;8317;52.186;5.688;2023-04-03T01:37:49;3.30;99.90
16417;DHT22;8317;52.186;5.688;2023-04-03T01:40:17;3.30;99.90
16417;DHT22;8317;52.186;5.688;2023-04-03T01:42:43;3.20;99.90
16417;DHT22;8317;52.186;5.688;2023-04-03T01:45:11;3.20;99.90
16417;DHT22;8317;52.186;5.688;2023-04-03T01:47:38;3.20;99.90
16417;DHT22;8317;52.186;5.688;2023-04-03T01:50:06;3.20;99.90
16417;DHT22;8317;52.186;5.688;2023-04-03T01:52:33;3.10;99.90
16417;DHT22;8317;52.186;5.688;2023-04-03T01:55:00;3.10;99.90
16417;DHT22;8317;52.186;5.688;2023-04-03T01:57:27;3.10;99.90
16417;DHT22;8317;52.186;5.688;2023-04-03T01:59:54;3.10;99.90
16417;DHT22;8317;52.186;5.688;2023-04-03T02:02:21;3.00;99.90
16417;DHT22;8317;52.186;5.688;2023-04-03T02:04:48;3.00;99.90
16417;DHT22;8317;52.186;5.688;2023-04-03T02:07:16;2.90;99.90
16417;DHT22;8317;52.186;5.688;2023-04-03T02:09:43;3.00;99.90
16417;DHT22;8317;52.186;5.688;2023-04-03T02:12:10;2.90;99.90
16417;DHT22;8317;52.186;5.688;2023-04-03T02:14:37;2.90;99.90
16417;DHT22;8317;52.186;5.688;2023-04-03T02:17:04;2.90;99.90
16417;DHT22;8317;52.186;5.688;2023-04-03T02:19:34;2.90;99.90
16417;DHT22;8317;52.186;5.688;2023-04-03T02:22:01;2.90;99.90
16417;DHT22;8317;52.186;5.688;2023-04-03T02:24:29;2.90;99.90
16417;DHT22;8317;52.186;5.688;2023-04-03T02:26:56;2.80;99.90
16417;DHT22;8317;52.186;5.688;2023-04-03T02:29:23;2.80;99.90
16417;DHT22;8317;52.186;5.688;2023-04-03T02:31:50;2.80;99.90
16417;DHT22;8317;52.186;5.688;2023-04-03T02:34:17;2.70;99.90
16417;DHT22;8317;52.186;5.688;2023-04-03T02:36:44;2.70;99.90
16417;DHT22;8317;52.186;5.688;2023-04-03T02:39:11;2.70;99.90
16417;DHT22;8317;52.186;5.688;2023-04-03T02:41:40;2.70;99.90
16417;DHT22;8317;52.186;5.688;2023-04-03T02:44:09;2.70;99.90
16417;DHT22;8317;52.186;5.688;2023-04-03T02:46:36;2.70;99.90
16417;DHT22;8317;52.186;5.688;2023-04-03T02:49:04;2.70;99.90
16417;DHT22;8317;52.186;5.688;2023-04-03T02:51:31;2.70;99.90
16417;DHT22;8317;52.186;5.688;2023-04-03T02:53:58;2.70;99.90
16417;DHT22;8317;52.186;5.688;2023-04-03T02:56:25;2.70;99.90
16417;DHT22;8317;52.186;5.688;2023-04-03T02:58:53;2.60;99.90
16417;DHT22;8317;52.186;5.688;2023-04-03T03:01:20;2.60;99.90
16417;DHT22;8317;52.186;5.688;2023-04-03T03:03:47;2.60;99.90
16417;DHT22;8317;52.186;5.688;2023-04-03T03:06:15;2.60;99.90
16417;DHT22;8317;52.186;5.688;2023-04-03T03:08:43;2.60;99.90
16417;DHT22;8317;52.186;5.688;2023-04-03T03:11:11;2.60;99.90
16417;DHT22;8317;52.186;5.688;2023-04-03T03:13:38;2.60;99.90
16417;DHT22;8317;52.186;5.688;2023-04-03T03:16:07;2.50;99.90
16417;DHT22;8317;52.186;5.688;2023-04-03T03:18:34;2.60;99.90
16417;DHT22;8317;52.186;5.688;2023-04-03T03:21:02;2.60;99.90
16417;DHT22;8317;52.186;5.688;2023-04-03T03:23:31;2.60;99.90
16417;DHT22;8317;52.186;5.688;2023-04-03T03:26:00;2.60;99.90
16417;DHT22;8317;52.186;5.688;2023-04-03T03:28:28;2.50;99.90
16417;DHT22;8317;52.186;5.688;2023-04-03T03:30:56;2.50;99.90
16417;DHT22;8317;52.186;5.688;2023-04-03T03:33:24;2.50;99.90
16417;DHT22;8317;52.186;5.688;2023-04-03T03:35:52;2.50;99.90
16417;DHT22;8317;52.186;5.688;2023-04-03T03:38:19;2.50;99.90
16417;DHT22;8317;52.186;5.688;2023-04-03T03:40:47;2.50;99.90
16417;DHT22;8317;52.186;5.688;2023-04-03T03:43:14;2.40;99.90
16417;DHT22;8317;52.186;5.688;2023-04-03T03:45:41;2.40;99.90
16417;DHT22;8317;52.186;5.688;2023-04-03T03:48:08;2.40;99.90
16417;DHT22;8317;52.186;5.688;2023-04-03T03:50:37;2.40;99.90
16417;DHT22;8317;52.186;5.688;2023-04-03T03:53:04;2.50;99.90
16417;DHT22;8317;52.186;5.688;2023-04-03T03:55:31;2.40;99.90
16417;DHT22;8317;52.186;5.688;2023-04-03T03:57:57;2.40;99.90
16417;DHT22;8317;52.186;5.688;2023-04-03T04:00:25;2.30;99.90
16417;DHT22;8317;52.186;5.688;2023-04-03T04:02:52;2.30;99.90
16417;DHT22;8317;52.186;5.688;2023-04-03T04:05:19;2.30;99.90
16417;DHT22;8317;52.186;5.688;2023-04-03T04:07:47;2.30;99.90
16417;DHT22;8317;52.186;5.688;2023-04-03T04:10:14;2.20;99.90
16417;DHT22;8317;52.186;5.688;2023-04-03T04:12:41;2.20;99.90
16417;DHT22;8317;52.186;5.688;2023-04-03T04:15:09;2.20;99.90
16417;DHT22;8317;52.186;5.688;2023-04-03T04:17:36;2.20;99.90
16417;DHT22;8317;52.186;5.688;2023-04-03T04:20:03;2.20;99.90
16417;DHT22;8317;52.186;5.688;2023-04-03T04:22:31;2.20;99.90
16417;DHT22;8317;52.186;5.688;2023-04-03T04:24:59;2.10;99.90
16417;DHT22;8317;52.186;5.688;2023-04-03T04:27:27;2.10;99.90
16417;DHT22;8317;52.186;5.688;2023-04-03T04:29:54;2.10;99.90
16417;DHT22;8317;52.186;5.688;2023-04-03T04:32:20;2.00;99.90
16417;DHT22;8317;52.186;5.688;2023-04-03T04:34:47;2.00;99.90
16417;DHT22;8317;52.186;5.688;2023-04-03T04:37:14;2.00;99.90
16417;DHT22;8317;52.186;5.688;2023-04-03T04:39:41;1.90;99.90
16417;DHT22;8317;52.186;5.688;2023-04-03T04:42:09;1.90;99.90
16417;DHT22;8317;52.186;5.688;2023-04-03T04:44:38;1.80;99.90
16417;DHT22;8317;52.186;5.688;2023-04-03T04:47:05;1.80;99.90
16417;DHT22;8317;52.186;5.688;2023-04-03T04:49:32;1.80;99.90
16417;DHT22;8317;52.186;5.688;2023-04-03T04:51:59;1.70;99.90
16417;DHT22;8317;52.186;5.688;2023-04-03T04:54:26;1.70;99.90
16417;DHT22;8317;52.186;5.688;2023-04-03T04:56:52;1.70;99.90
16417;DHT22;8317;52.186;5.688;2023-04-03T04:59:21;1.70;99.90
16417;DHT22;8317;52.186;5.688;2023-04-03T05:01:48;1.60;99.90
16417;DHT22;8317;52.186;5.688;2023-04-03T05:04:15;1.70;99.90
16417;DHT22;8317;52.186;5.688;2023-04-03T05:06:42;1.60;99.90
16417;DHT22;8317;52.186;5.688;2023-04-03T05:09:09;1.70;99.90
16417;DHT22;8317;52.186;5.688;2023-04-03T05:11:36;1.60;99.90
16417;DHT22;8317;52.186;5.688;2023-04-03T05:14:03;1.60;99.90
16417;DHT22;8317;52.186;5.688;2023-04-03T05:16:33;1.70;99.90
16417;DHT22;8317;52.186;5.688;2023-04-03T05:19:00;1.60;99.90
16417;DHT22;8317;52.186;5.688;2023-04-03T05:21:27;1.60;99.90
16417;DHT22;8317;52.186;5.688;2023-04-03T05:23:57;1.50;99.90
16417;DHT22;8317;52.186;5.688;2023-04-03T05:26:24;1.50;99.90
16417;DHT22;8317;52.186;5.688;2023-04-03T05:28:52;1.50;99.90
16417;DHT22;8317;52.186;5.688;2023-04-03T05:31:19;1.60;99.90
16417;DHT22;8317;52.186;5.688;2023-04-03T05:33:48;1.70;99.90
16417;DHT22;8317;52.186;5.688;2023-04-03T05:36:16;1.60;99.90
16417;DHT22;8317;52.186;5.688;2023-04-03T05:38:43;1.60;99.90
16417;DHT22;8317;52.186;5.688;2023-04-03T05:41:10;1.60;99.90
16417;DHT22;8317;52.186;5.688;2023-04-03T05:43:37;1.60;99.90
16417;DHT22;8317;52.186;5.688;2023-04-03T05:46:08;1.60;99.90
16417;DHT22;8317;52.186;5.688;2023-04-03T05:48:35;1.60;99.90
16417;DHT22;8317;52.186;5.688;2023-04-03T05:51:04;1.60;99.90
16417;DHT22;8317;52.186;5.688;2023-04-03T05:53:33;1.70;99.90
16417;DHT22;8317;52.186;5.688;2023-04-03T05:56:01;1.70;99.90
16417;DHT22;8317;52.186;5.688;2023-04-03T05:58:28;1.80;99.90
16417;DHT22;8317;52.186;5.688;2023-04-03T06:00:55;1.80;99.90
16417;DHT22;8317;52.186;5.688;2023-04-03T06:03:22;1.80;99.90
16417;DHT22;8317;52.186;5.688;2023-04-03T06:05:49;1.80;99.90
16417;DHT22;8317;52.186;5.688;2023-04-03T06:08:17;1.90;99.90
16417;DHT22;8317;52.186;5.688;2023-04-03T06:10:44;1.90;99.90
16417;DHT22;8317;52.186;5.688;2023-04-03T06:13:11;1.90;99.90
16417;DHT22;8317;52.186;5.688;2023-04-03T06:15:38;2.00;99.90
16417;DHT22;8317;52.186;5.688;2023-04-03T06:18:05;2.10;99.90
16417;DHT22;8317;52.186;5.688;2023-04-03T06:20:32;2.10;99.90
16417;DHT22;8317;52.186;5.688;2023-04-03T06:22:59;2.20;99.90
16417;DHT22;8317;52.186;5.688;2023-04-03T06:25:27;2.10;99.90
16417;DHT22;8317;52.186;5.688;2023-04-03T06:27:54;2.20;99.90
16417;DHT22;8317;52.186;5.688;2023-04-03T06:30:21;2.30;99.90
16417;DHT22;8317;52.186;5.688;2023-04-03T06:32:48;2.20;99.90
16417;DHT22;8317;52.186;5.688;2023-04-03T06:35:15;2.30;99.90
16417;DHT22;8317;52.186;5.688;2023-04-03T06:37:42;2.40;99.90
16417;DHT22;8317;52.186;5.688;2023-04-03T06:40:15;2.50;99.90
16417;DHT22;8317;52.186;5.688;2023-04-03T06:42:46;2.60;99.90
16417;DHT22;8317;52.186;5.688;2023-04-03T06:45:13;2.70;99.90
16417;DHT22;8317;52.186;5.688;2023-04-03T06:47:40;2.70;99.90
16417;DHT22;8317;52.186;5.688;2023-04-03T06:50:08;2.90;99.90
16417;DHT22;8317;52.186;5.688;2023-04-03T06:52:37;3.00;99.90
16417;DHT22;8317;52.186;5.688;2023-04-03T06:55:05;3.20;99.90
16417;DHT22;8317;52.186;5.688;2023-04-03T06:57:32;3.30;99.90
16417;DHT22;8317;52.186;5.688;2023-04-03T07:00:02;3.60;99.90
16417;DHT22;8317;52.186;5.688;2023-04-03T07:02:29;3.70;99.90
16417;DHT22;8317;52.186;5.688;2023-04-03T07:04:56;3.80;99.90
16417;DHT22;8317;52.186;5.688;2023-04-03T07:07:23;4.00;99.90
16417;DHT22;8317;52.186;5.688;2023-04-03T07:09:50;4.00;99.90
16417;DHT22;8317;52.186;5.688;2023-04-03T07:12:17;4.10;99.90
16417;DHT22;8317;52.186;5.688;2023-04-03T07:14:44;4.50;99.90
16417;DHT22;8317;52.186;5.688;2023-04-03T07:17:12;4.60;99.90
16417;DHT22;8317;52.186;5.688;2023-04-03T07:19:39;4.70;99.90
16417;DHT22;8317;52.186;5.688;2023-04-03T07:22:06;4.50;99.90
16417;DHT22;8317;52.186;5.688;2023-04-03T07:24:33;4.80;99.90
16417;DHT22;8317;52.186;5.688;2023-04-03T07:27:00;5.30;99.90
16417;DHT22;8317;52.186;5.688;2023-04-03T07:29:28;5.80;99.90
16417;DHT22;8317;52.186;5.688;2023-04-03T07:31:55;6.10;99.90
16417;DHT22;8317;52.186;5.688;2023-04-03T07:34:24;6.00;99.90
16417;DHT22;8317;52.186;5.688;2023-04-03T07:36:50;5.30;99.90
16417;DHT22;8317;52.186;5.688;2023-04-03T07:39:17;5.60;99.90
16417;DHT22;8317;52.186;5.688;2023-04-03T07:41:44;5.40;99.90
16417;DHT22;8317;52.186;5.688;2023-04-03T07:44:11;5.50;99.90
16417;DHT22;8317;52.186;5.688;2023-04-03T07:46:38;5.70;99.90
16417;DHT22;8317;52.186;5.688;2023-04-03T07:49:06;6.30;99.90
16417;DHT22;8317;52.186;5.688;2023-04-03T07:51:34;6.20;99.90
16417;DHT22;8317;52.186;5.688;2023-04-03T07:54:01;6.30;99.90
16417;DHT22;8317;52.186;5.688;2023-04-03T07:56:28;7.00;99.90
16417;DHT22;8317;52.186;5.688;2023-04-03T07:58:55;7.00;99.90
16417;DHT22;8317;52.186;5.688;2023-04-03T08:01:22;7.10;99.90
16417;DHT22;8317;52.186;5.688;2023-04-03T08:03:48;7.20;99.90
16417;DHT22;8317;52.186;5.688;2023-04-03T08:06:16;7.60;99.90
16417;DHT22;8317;52.186;5.688;2023-04-03T08:08:44;7.90;99.90
16417;DHT22;8317;52.186;5.688;2023-04-03T08:11:11;7.70;99.90
16417;DHT22;8317;52.186;5.688;2023-04-03T08:13:38;8.20;99.90
16417;DHT22;8317;52.186;5.688;2023-04-03T08:16:09;8.10;99.90
16417;DHT22;8317;52.186;5.688;2023-04-03T08:18:36;7.50;99.90
16417;DHT22;8317;52.186;5.688;2023-04-03T08:21:08;7.80;99.90
16417;DHT22;8317;52.186;5.688;2023-04-03T08:23:36;8.00;99.90
16417;DHT22;8317;52.186;5.688;2023-04-03T08:26:09;7.50;99.90
16417;DHT22;8317;52.186;5.688;2023-04-03T08:28:36;7.30;99.90
16417;DHT22;8317;52.186;5.688;2023-04-03T08:31:04;8.00;99.90
16417;DHT22;8317;52.186;5.688;2023-04-03T08:33:32;7.80;99.90
16417;DHT22;8317;52.186;5.688;2023-04-03T08:36:02;8.00;99.90
16417;DHT22;8317;52.186;5.688;2023-04-03T08:38:29;8.30;99.90
16417;DHT22;8317;52.186;5.688;2023-04-03T08:41:06;8.70;99.90
16417;DHT22;8317;52.186;5.688;2023-04-03T08:43:48;7.80;99.90
16417;DHT22;8317;52.186;5.688;2023-04-03T08:46:21;7.80;99.90
16417;DHT22;8317;52.186;5.688;2023-04-03T08:48:51;7.50;99.90
16417;DHT22;8317;52.186;5.688;2023-04-03T08:51:20;8.10;99.90
16417;DHT22;8317;52.186;5.688;2023-04-03T08:53:54;7.60;99.90
16417;DHT22;8317;52.186;5.688;2023-04-03T08:56:24;7.60;99.90
16417;DHT22;8317;52.186;5.688;2023-04-03T08:58:56;8.00;99.90
16417;DHT22;8317;52.186;5.688;2023-04-03T09:01:26;7.90;99.90
16417;DHT22;8317;52.186;5.688;2023-04-03T09:03:54;7.80;99.90
16417;DHT22;8317;52.186;5.688;2023-04-03T09:06:23;7.70;99.90
16417;DHT22;8317;52.186;5.688;2023-04-03T09:08:53;7.80;99.90
16417;DHT22;8317;52.186;5.688;2023-04-03T09:11:25;7.70;99.90
16417;DHT22;8317;52.186;5.688;2023-04-03T09:13:59;7.90;99.90
16417;DHT22;8317;52.186;5.688;2023-04-03T09:16:36;7.90;99.90
16417;DHT22;8317;52.186;5.688;2023-04-03T09:19:14;8.10;99.90
16417;DHT22;8317;52.186;5.688;2023-04-03T09:21:42;8.40;99.90
16417;DHT22;8317;52.186;5.688;2023-04-03T09:24:12;9.40;99.90
16417;DHT22;8317;52.186;5.688;2023-04-03T09:26:43;9.70;99.10
16417;DHT22;8317;52.186;5.688;2023-04-03T09:29:18;8.90;99.60
16417;DHT22;8317;52.186;5.688;2023-04-03T09:31:48;9.60;99.90
16417;DHT22;8317;52.186;5.688;2023-04-03T09:34:21;10.10;99.50
16417;DHT22;8317;52.186;5.688;2023-04-03T09:36:50;10.40;98.20
16417;DHT22;8317;52.186;5.688;2023-04-03T09:39:20;9.50;95.00
16417;DHT22;8317;52.186;5.688;2023-04-03T09:41:59;9.40;96.40
16417;DHT22;8317;52.186;5.688;2023-04-03T09:44:30;9.80;97.40
16417;DHT22;8317;52.186;5.688;2023-04-03T09:46:57;9.40;97.20
16417;DHT22;8317;52.186;5.688;2023-04-03T09:49:25;10.30;96.60
16417;DHT22;8317;52.186;5.688;2023-04-03T09:51:52;10.30;94.70
16417;DHT22;8317;52.186;5.688;2023-04-03T09:54:35;9.80;95.70
16417;DHT22;8317;52.186;5.688;2023-04-03T09:57:09;10.00;94.80
16417;DHT22;8317;52.186;5.688;2023-04-03T09:59:43;10.30;95.50
16417;DHT22;8317;52.186;5.688;2023-04-03T10:02:27;9.60;93.80
16417;DHT22;8317;52.186;5.688;2023-04-03T10:04:56;10.20;95.50
16417;DHT22;8317;52.186;5.688;2023-04-03T10:07:30;10.30;92.10
16417;DHT22;8317;52.186;5.688;2023-04-03T10:09:58;9.70;90.10
16417;DHT22;8317;52.186;5.688;2023-04-03T10:12:25;9.90;91.90
16417;DHT22;8317;52.186;5.688;2023-04-03T10:14:58;9.90;91.90
16417;DHT22;8317;52.186;5.688;2023-04-03T10:17:42;10.10;91.70
16417;DHT22;8317;52.186;5.688;2023-04-03T10:20:25;9.90;90.30
16417;DHT22;8317;52.186;5.688;2023-04-03T10:23:01;10.10;90.70
16417;DHT22;8317;52.186;5.688;2023-04-03T10:25:32;9.80;91.50
16417;DHT22;8317;52.186;5.688;2023-04-03T10:28:04;10.50;92.10
16417;DHT22;8317;52.186;5.688;2023-04-03T10:30:42;10.10;90.80
16417;DHT22;8317;52.186;5.688;2023-04-03T10:33:23;11.00;93.60
16417;DHT22;8317;52.186;5.688;2023-04-03T10:36:02;11.00;90.20
16417;DHT22;8317;52.186;5.688;2023-04-03T10:38:40;10.20;89.30
16417;DHT22;8317;52.186;5.688;2023-04-03T10:41:14;10.00;90.70
16417;DHT22;8317;52.186;5.688;2023-04-03T10:43:47;10.50;90.10
16417;DHT22;8317;52.186;5.688;2023-04-03T10:46:20;10.80;90.80
16417;DHT22;8317;52.186;5.688;2023-04-03T10:49:17;10.70;90.30
16417;DHT22;8317;52.186;5.688;2023-04-03T10:51:48;10.30;90.30
16417;DHT22;8317;52.186;5.688;2023-04-03T10:54:21;10.40;90.40
16417;DHT22;8317;52.186;5.688;2023-04-03T10:56:53;10.70;90.50
16417;DHT22;8317;52.186;5.688;2023-04-03T10:59:25;10.40;88.00
16417;DHT22;8317;52.186;5.688;2023-04-03T11:01:56;10.60;91.10
16417;DHT22;8317;52.186;5.688;2023-04-03T11:04:27;10.40;88.60
16417;DHT22;8317;52.186;5.688;2023-04-03T11:07:00;10.40;90.10
16417;DHT22;8317;52.186;5.688;2023-04-03T11:09:31;10.40;91.30
16417;DHT22;8317;52.186;5.688;2023-04-03T11:12:06;10.50;90.50
16417;DHT22;8317;52.186;5.688;2023-04-03T11:14:38;10.70;90.80
16417;DHT22;8317;52.186;5.688;2023-04-03T11:17:15;10.20;90.00
16417;DHT22;8317;52.186;5.688;2023-04-03T11:19:46;10.50;89.80
16417;DHT22;8317;52.186;5.688;2023-04-03T11:22:22;10.40;89.80
16417;DHT22;8317;52.186;5.688;2023-04-03T11:24:57;10.10;90.50
16417;DHT22;8317;52.186;5.688;2023-04-03T11:27:25;10.30;90.90
16417;DHT22;8317;52.186;5.688;2023-04-03T11:29:57;10.60;91.00
16417;DHT22;8317;52.186;5.688;2023-04-03T11:32:48;10.80;90.20
16417;DHT22;8317;52.186;5.688;2023-04-03T11:35:18;11.00;89.90
16417;DHT22;8317;52.186;5.688;2023-04-03T11:37:47;11.00;87.00
16417;DHT22;8317;52.186;5.688;2023-04-03T11:40:26;10.90;90.50
16417;DHT22;8317;52.186;5.688;2023-04-03T11:43:04;10.90;87.20
16417;DHT22;8317;52.186;5.688;2023-04-03T11:45:37;10.80;88.10
16417;DHT22;8317;52.186;5.688;2023-04-03T11:48:43;10.50;88.70
16417;DHT22;8317;52.186;5.688;2023-04-03T11:54:42;10.60;88.80
16417;DHT22;8317;52.186;5.688;2023-04-03T11:57:44;10.90;89.30
16417;DHT22;8317;52.186;5.688;2023-04-03T12:00:45;11.30;89.30
16417;DHT22;8317;52.186;5.688;2023-04-03T12:09:26;11.70;90.80
16417;DHT22;8317;52.186;5.688;2023-04-03T12:11:55;11.80;86.70
16417;DHT22;8317;52.186;5.688;2023-04-03T12:14:24;11.60;86.80
16417;DHT22;8317;52.186;5.688;2023-04-03T12:16:53;11.70;87.20
16417;DHT22;8317;52.186;5.688;2023-04-03T12:19:33;11.40;89.30
16417;DHT22;8317;52.186;5.688;2023-04-03T12:22:12;11.10;88.80
16417;DHT22;8317;52.186;5.688;2023-04-03T12:24:41;11.00;88.80
16417;DHT22;8317;52.186;5.688;2023-04-03T12:27:32;11.60;89.30
16417;DHT22;8317;52.186;5.688;2023-04-03T12:30:15;11.60;89.70
16417;DHT22;8317;52.186;5.688;2023-04-03T12:32:51;11.80;88.80
16417;DHT22;8317;52.186;5.688;2023-04-03T12:35:24;11.60;86.00
16417;DHT22;8317;52.186;5.688;2023-04-03T12:38:14;11.90;90.00
16417;DHT22;8317;52.186;5.688;2023-04-03T12:40:50;11.90;88.90
16417;DHT22;8317;52.186;5.688;2023-04-03T12:43:31;11.70;86.20
16417;DHT22;8317;52.186;5.688;2023-04-03T12:46:07;11.00;88.20
16417;DHT22;8317;52.186;5.688;2023-04-03T12:48:39;10.80;90.10
16417;DHT22;8317;52.186;5.688;2023-04-03T12:51:14;11.30;90.70
16417;DHT22;8317;52.186;5.688;2023-04-03T12:53:42;11.50;90.20
16417;DHT22;8317;52.186;5.688;2023-04-03T12:56:31;11.40;90.80
16417;DHT22;8317;52.186;5.688;2023-04-03T12:59:14;11.60;88.10
16417;DHT22;8317;52.186;5.688;2023-04-03T13:01:41;11.20;90.90
16417;DHT22;8317;52.186;5.688;2023-04-03T13:04:10;11.40;92.20
16417;DHT22;8317;52.186;5.688;2023-04-03T13:06:40;11.80;90.00
16417;DHT22;8317;52.186;5.688;2023-04-03T13:09:19;11.70;91.40
16417;DHT22;8317;52.186;5.688;2023-04-03T13:11:50;12.10;90.50
16417;DHT22;8317;52.186;5.688;2023-04-03T13:14:19;11.90;90.50
16417;DHT22;8317;52.186;5.688;2023-04-03T13:16:53;11.30;90.70
16417;DHT22;8317;52.186;5.688;2023-04-03T13:19:23;11.00;88.50
16417;DHT22;8317;52.186;5.688;2023-04-03T13:21:57;11.10;90.50
16417;DHT22;8317;52.186;5.688;2023-04-03T13:24:26;10.90;90.80
16417;DHT22;8317;52.186;5.688;2023-04-03T13:26:55;11.50;91.00
16417;DHT22;8317;52.186;5.688;2023-04-03T13:29:25;11.80;90.80
16417;DHT22;8317;52.186;5.688;2023-04-03T13:31:53;11.40;89.10
16417;DHT22;8317;52.186;5.688;2023-04-03T13:34:23;11.00;90.90
16417;DHT22;8317;52.186;5.688;2023-04-03T13:37:01;11.20;90.90
16417;DHT22;8317;52.186;5.688;2023-04-03T13:39:36;11.80;91.10
16417;DHT22;8317;52.186;5.688;2023-04-03T13:42:16;11.60;91.50
16417;DHT22;8317;52.186;5.688;2023-04-03T13:44:46;11.40;91.50
16417;DHT22;8317;52.186;5.688;2023-04-03T13:47:19;11.20;91.30
16417;DHT22;8317;52.186;5.688;2023-04-03T13:49:59;11.30;91.30
16417;DHT22;8317;52.186;5.688;2023-04-03T13:52:29;11.10;90.70
16417;DHT22;8317;52.186;5.688;2023-04-03T13:54:58;11.30;91.50
16417;DHT22;8317;52.186;5.688;2023-04-03T13:57:27;11.70;92.10
16417;DHT22;8317;52.186;5.688;2023-04-03T13:59:54;12.00;91.30
16417;DHT22;8317;52.186;5.688;2023-04-03T14:02:28;11.50;91.90
16417;DHT22;8317;52.186;5.688;2023-04-03T14:04:58;11.10;91.00
16417;DHT22;8317;52.186;5.688;2023-04-03T14:07:27;11.10;92.10
16417;DHT22;8317;52.186;5.688;2023-04-03T14:09:55;11.30;92.10
16417;DHT22;8317;52.186;5.688;2023-04-03T14:12:27;11.40;92.70
16417;DHT22;8317;52.186;5.688;2023-04-03T14:14:55;11.60;92.30
16417;DHT22;8317;52.186;5.688;2023-04-03T14:17:24;11.10;91.70
16417;DHT22;8317;52.186;5.688;2023-04-03T14:19:52;10.80;91.00
16417;DHT22;8317;52.186;5.688;2023-04-03T14:22:22;10.50;92.10
16417;DHT22;8317;52.186;5.688;2023-04-03T14:24:50;10.80;92.70
16417;DHT22;8317;52.186;5.688;2023-04-03T14:27:20;10.80;92.60
16417;DHT22;8317;52.186;5.688;2023-04-03T14:29:51;10.80;92.50
16417;DHT22;8317;52.186;5.688;2023-04-03T14:32:20;10.90;92.60
16417;DHT22;8317;52.186;5.688;2023-04-03T14:34:48;10.80;92.20
16417;DHT22;8317;52.186;5.688;2023-04-03T14:37:18;10.60;92.00
16417;DHT22;8317;52.186;5.688;2023-04-03T14:39:47;10.40;92.50
16417;DHT22;8317;52.186;5.688;2023-04-03T14:42:16;10.40;92.60
16417;DHT22;8317;52.186;5.688;2023-04-03T14:44:43;10.80;94.50
16417;DHT22;8317;52.186;5.688;2023-04-03T14:47:13;10.60;93.20
16417;DHT22;8317;52.186;5.688;2023-04-03T14:49:41;10.30;93.20
16417;DHT22;8317;52.186;5.688;2023-04-03T14:52:18;10.40;93.50
16417;DHT22;8317;52.186;5.688;2023-04-03T14:54:46;10.30;93.40
16417;DHT22;8317;52.186;5.688;2023-04-03T14:57:13;10.50;94.80
16417;DHT22;8317;52.186;5.688;2023-04-03T14:59:41;10.70;95.80
16417;DHT22;8317;52.186;5.688;2023-04-03T15:02:25;10.80;95.50
16417;DHT22;8317;52.186;5.688;2023-04-03T15:04:53;10.60;94.40
16417;DHT22;8317;52.186;5.688;2023-04-03T15:07:20;10.00;95.40
16417;DHT22;8317;52.186;5.688;2023-04-03T15:09:47;10.10;95.20
16417;DHT22;8317;52.186;5.688;2023-04-03T15:12:15;9.90;94.40
16417;DHT22;8317;52.186;5.688;2023-04-03T15:14:42;10.00;95.40
16417;DHT22;8317;52.186;5.688;2023-04-03T15:17:13;10.30;96.90
16417;DHT22;8317;52.186;5.688;2023-04-03T15:19:42;10.50;96.00
16417;DHT22;8317;52.186;5.688;2023-04-03T15:22:14;10.20;95.60
16417;DHT22;8317;52.186;5.688;2023-04-03T15:24:41;10.00;95.40
16417;DHT22;8317;52.186;5.688;2023-04-03T15:27:08;10.00;95.90
16417;DHT22;8317;52.186;5.688;2023-04-03T15:29:35;9.80;96.50
16417;DHT22;8317;52.186;5.688;2023-04-03T15:32:02;9.80;96.80
16417;DHT22;8317;52.186;5.688;2023-04-03T15:34:29;9.70;96.70
16417;DHT22;8317;52.186;5.688;2023-04-03T15:36:58;9.70;97.20
16417;DHT22;8317;52.186;5.688;2023-04-03T15:39:25;9.90;97.70
16417;DHT22;8317;52.186;5.688;2023-04-03T15:41:53;10.00;97.20
16417;DHT22;8317;52.186;5.688;2023-04-03T15:44:22;10.20;98.30
16417;DHT22;8317;52.186;5.688;2023-04-03T15:46:49;10.10;98.20
16417;DHT22;8317;52.186;5.688;2023-04-03T15:49:17;10.00;98.80
16417;DHT22;8317;52.186;5.688;2023-04-03T15:51:44;10.00;98.20
16417;DHT22;8317;52.186;5.688;2023-04-03T15:54:13;10.00;97.60
16417;DHT22;8317;52.186;5.688;2023-04-03T15:56:40;10.00;98.00
16417;DHT22;8317;52.186;5.688;2023-04-03T15:59:07;10.00;98.30
16417;DHT22;8317;52.186;5.688;2023-04-03T16:01:34;10.00;98.60
16417;DHT22;8317;52.186;5.688;2023-04-03T16:04:01;9.80;97.90
16417;DHT22;8317;52.186;5.688;2023-04-03T16:06:28;9.80;98.20
16417;DHT22;8317;52.186;5.688;2023-04-03T16:08:57;9.90;99.60
16417;DHT22;8317;52.186;5.688;2023-04-03T16:11:26;9.70;99.70
16417;DHT22;8317;52.186;5.688;2023-04-03T16:13:53;9.70;98.80
16417;DHT22;8317;52.186;5.688;2023-04-03T16:16:20;9.70;99.40
16417;DHT22;8317;52.186;5.688;2023-04-03T16:18:47;9.50;98.50
16417;DHT22;8317;52.186;5.688;2023-04-03T16:21:15;9.50;98.90
16417;DHT22;8317;52.186;5.688;2023-04-03T16:23:43;9.50;98.80
16417;DHT22;8317;52.186;5.688;2023-04-03T16:26:11;9.50;99.40
16417;DHT22;8317;52.186;5.688;2023-04-03T16:28:39;9.50;98.80